Time;durP1;ratioP1;P1;durP2;ratioP2;P2;SDS_P1;SDS_P2;PMS_P1;PMS_P2;Temp;Humidity;BMP_temperature;BMP_pressure;BME280_temperature;BME280_humidity;BME280_pressure;Samples;Min_cycle;Max_cycle;Signal;HPM_P1;HPM_P2
2022/09/21 00:00:38;;;;;;;12.25;4.57;;;;;;;10.75;84.49;102591.53;5059237;28;20045;-82
2022/09/21 00:03:04;;;;;;;7.93;4.00;;;;;;;10.71;84.39;102595.06;5068820;28;20060;-82
2022/09/21 00:05:30;;;;;;;9.27;3.90;;;;;;;10.64;83.42;102591.50;5071582;28;20024;-82
2022/09/21 00:07:59;;;;;;;7.78;3.97;;;;;;;10.58;83.47;102588.78;5072942;28;20036;-82
2022/09/21 00:10:25;;;;;;;11.48;3.97;;;;;;;10.51;83.62;102592.31;5054886;28;20371;-83
2022/09/21 00:12:52;;;;;;;6.82;3.58;;;;;;;10.47;83.66;102595.81;5057782;28;20488;-82
2022/09/21 00:15:18;;;;;;;7.25;3.42;;;;;;;10.44;83.96;102596.66;5071087;28;20056;-82
2022/09/21 00:17:45;;;;;;;9.10;3.67;;;;;;;10.40;84.59;102594.88;5054978;28;20040;-83
2022/09/21 00:20:11;;;;;;;9.30;3.92;;;;;;;10.38;85.41;102596.59;5071419;28;20464;-82
2022/09/21 00:22:37;;;;;;;7.43;3.65;;;;;;;10.35;84.85;102588.66;5072887;28;20043;-82
2022/09/21 00:25:02;;;;;;;10.15;3.90;;;;;;;10.32;84.71;102583.34;5036321;28;20036;-82
2022/09/21 00:27:29;;;;;;;10.57;4.63;;;;;;;10.27;84.49;102587.69;5032470;28;20376;-82
2022/09/21 00:29:56;;;;;;;10.07;4.10;;;;;;;10.24;84.71;102585.03;5051608;28;20040;-82
2022/09/21 00:32:24;;;;;;;7.70;3.80;;;;;;;10.17;83.86;102586.72;5036324;28;20124;-83
2022/09/21 00:34:50;;;;;;;8.23;3.35;;;;;;;10.12;83.64;102586.69;5044116;28;20033;-82
2022/09/21 00:37:17;;;;;;;12.60;3.95;;;;;;;10.10;83.99;102587.53;5053474;28;20043;-82
2022/09/21 00:39:43;;;;;;;9.82;3.80;;;;;;;10.06;83.86;102594.59;5071367;28;20044;-82
2022/09/21 00:42:19;;;;;;;10.90;3.83;;;;;;;10.04;84.16;102590.13;5071391;28;20047;-82
2022/09/21 00:44:45;;;;;;;8.32;3.90;;;;;;;10.00;85.50;102591.00;5071200;28;20036;-82
2022/09/21 00:47:16;;;;;;;10.18;3.30;;;;;;;9.97;84.73;102588.34;5072682;28;20032;-83
2022/09/21 00:49:44;;;;;;;6.57;3.88;;;;;;;9.99;85.81;102591.84;5071166;28;20395;-82
2022/09/21 00:52:13;;;;;;;6.82;3.97;;;;;;;9.99;86.71;102590.13;5072626;28;20024;-82
2022/09/21 00:55:13;;;;;;;9.07;3.97;;;;;;;10.03;86.23;102591.91;5072440;28;20369;-83
2022/09/21 00:57:40;;;;;;;12.25;3.92;;;;;;;10.00;86.06;102591.88;5072348;28;20042;-82
2022/09/21 01:00:08;;;;;;;9.15;3.95;;;;;;;9.99;86.37;102592.75;5054563;28;20036;-82
2022/09/21 01:02:35;;;;;;;8.65;3.95;;;;;;;10.01;86.33;102596.28;5072450;28;20025;-82
2022/09/21 01:05:04;;;;;;;8.93;4.28;;;;;;;10.01;86.53;102598.06;5070944;28;20031;-82
2022/09/21 01:07:32;;;;;;;9.93;3.95;;;;;;;9.98;86.25;102590.09;5072408;28;20465;-82
2022/09/21 01:10:04;;;;;;;8.98;3.90;;;;;;;9.94;86.77;102594.50;5070620;28;20020;-82
2022/09/21 01:12:38;;;;;;;;;;;;;;;10.03;85.02;102599.84;5070838;28;20427;-82
2022/09/21 01:15:28;;;;;;;6.35;3.60;;;;;;;9.90;85.90;102592.69;5053956;28;19916;-82
2022/09/21 01:17:59;;;;;;;7.20;3.47;;;;;;;9.86;85.62;102593.50;5067644;28;20033;-82
2022/09/21 01:21:03;;;;;;;7.45;3.95;;;;;;;9.85;85.83;102599.69;5064835;28;20484;-82
2022/09/21 01:23:32;;;;;;;7.57;3.47;;;;;;;9.75;85.19;102589.91;5047004;28;20115;-82
2022/09/21 01:26:25;;;;;;;7.55;4.05;;;;;;;9.69;86.15;102602.19;5033455;28;20362;-82
2022/09/21 01:29:12;;;;;;;9.48;3.58;;;;;;;9.65;86.18;102595.09;5051326;28;20040;-82
2022/09/21 01:32:16;;;;;;;8.35;3.75;;;;;;;9.66;85.34;102591.56;5058982;28;20495;-82
2022/09/21 01:34:53;;;;;;;6.13;3.70;;;;;;;9.63;85.66;102603.88;5056030;28;20114;-82
2022/09/21 01:37:42;;;;;;;5.93;3.70;;;;;;;9.60;86.21;102590.63;5071813;28;20033;-81
2022/09/21 01:40:18;;;;;;;9.00;3.70;;;;;;;9.61;86.99;102605.63;5050640;28;20120;-82
2022/09/21 01:42:47;;;;;;;9.63;3.50;;;;;;;9.61;87.02;102602.97;5071069;28;20102;-82
2022/09/21 01:45:16;;;;;;;6.53;4.00;;;;;;;9.63;87.32;102603.88;5050593;28;20033;-82
2022/09/21 01:47:45;;;;;;;10.55;3.53;;;;;;;9.62;87.82;102597.72;5062675;28;20075;-82
2022/09/21 01:50:13;;;;;;;9.93;3.92;;;;;;;9.60;86.97;102598.56;5054340;28;20052;-82
2022/09/21 01:52:52;;;;;;;7.13;3.20;;;;;;;9.58;86.98;102598.53;5054882;28;20063;-83
2022/09/21 01:55:27;;;;;;;9.90;3.78;;;;;;;9.54;86.00;102599.38;5048022;28;20040;-83
2022/09/21 01:58:04;;;;;;;6.95;3.75;;;;;;;9.52;87.18;102600.22;5062078;28;20045;-82
2022/09/21 02:00:33;;;;;;;6.78;3.95;;;;;;;9.43;85.53;102593.09;5056405;28;20120;-82
2022/09/21 02:03:06;;;;;;;7.45;3.92;;;;;;;9.41;87.78;102598.34;5071876;28;20094;-82
2022/09/21 02:05:32;;;;;;;5.07;3.30;;;;;;;9.39;86.82;102593.91;5071865;28;20353;-82
2022/09/21 02:07:59;;;;;;;5.30;3.28;;;;;;;9.37;86.72;102593.91;5069162;28;20048;-82
2022/09/21 02:10:32;;;;;;;9.35;3.70;;;;;;;9.35;88.12;102595.66;5047849;28;20593;-82
2022/09/21 02:13:01;;;;;;;10.18;4.63;;;;;;;9.33;89.35;102605.31;5063157;28;20043;-82
2022/09/21 02:15:40;;;;;;;9.95;3.90;;;;;;;9.32;88.98;102602.66;5071282;28;20076;-82
2022/09/21 02:18:26;;;;;;;11.18;4.38;;;;;;;9.28;87.85;102601.75;5071306;28;20450;-82
2022/09/21 02:20:57;;;;;;;9.35;4.28;;;;;;;9.24;87.87;102599.91;5071307;28;20067;-82
2022/09/21 02:23:36;;;;;;;8.55;3.65;;;;;;;9.23;87.63;102599.03;5071588;28;20086;-82
2022/09/21 02:26:12;;;;;;;5.80;3.83;;;;;;;9.20;87.66;102596.38;5075326;28;20120;-82
2022/09/21 02:28:55;;;;;;;10.05;3.75;;;;;;;9.17;86.95;102595.41;5061599;28;20040;-82
2022/09/21 02:31:33;;;;;;;7.30;3.75;;;;;;;9.13;87.33;102599.81;5066045;28;20530;-82
2022/09/21 02:34:20;;;;;;;6.47;3.90;;;;;;;9.09;87.09;102599.75;5056825;28;20119;-82
2022/09/21 02:36:53;;;;;;;11.52;4.03;;;;;;;9.05;87.23;102601.47;5067262;28;20028;-82
2022/09/21 02:39:32;;;;;;;10.18;4.20;;;;;;;9.03;88.75;102601.44;5073298;28;20036;-82
2022/09/21 02:42:09;;;;;;;6.35;3.63;;;;;;;8.99;87.55;102590.81;5073591;28;20475;-82
2022/09/21 02:44:51;;;;;;;8.23;3.65;;;;;;;8.92;86.23;102594.22;5073371;28;20036;-82
2022/09/21 02:47:41;;;;;;;8.57;3.95;;;;;;;8.86;86.86;102597.69;5073455;28;20115;-82
2022/09/21 02:50:13;;;;;;;7.50;3.80;;;;;;;8.76;87.03;102593.16;5073423;28;20718;-82
2022/09/21 02:52:41;;;;;;;8.90;3.95;;;;;;;8.71;87.72;102593.09;5073323;28;20367;-82
2022/09/21 02:55:08;;;;;;;5.35;3.38;;;;;;;8.67;87.29;102601.81;5073365;28;20052;-82
2022/09/21 02:57:36;;;;;;;5.75;4.00;;;;;;;8.62;89.28;102598.22;5073240;28;20029;-82
2022/09/21 03:00:05;;;;;;;9.10;4.00;;;;;;;8.55;88.43;102596.38;5072958;28;20494;-82
2022/09/21 03:02:42;;;;;;;7.70;3.78;;;;;;;8.52;88.57;102591.03;5059878;28;20449;-82
2022/09/21 03:05:09;;;;;;;6.10;3.70;;;;;;;8.44;87.56;102596.22;5059579;28;20028;-82
2022/09/21 03:07:34;;;;;;;7.53;3.67;;;;;;;8.36;87.95;102592.53;5072892;28;20448;-82
2022/09/21 03:10:00;;;;;;;6.95;3.55;;;;;;;8.24;86.19;102590.59;5072963;28;20044;-82
2022/09/21 03:12:25;;;;;;;7.03;3.83;;;;;;;8.21;87.45;102598.47;5043824;28;20097;-82
2022/09/21 03:14:52;;;;;;;6.65;3.63;;;;;;;8.16;87.92;102592.25;5069508;28;20075;-82
2022/09/21 03:17:18;;;;;;;6.55;3.80;;;;;;;8.09;88.19;102600.91;5072326;28;20044;-82
2022/09/21 03:19:43;;;;;;;6.70;3.83;;;;;;;8.02;87.81;102599.91;5048365;28;20041;-82
2022/09/21 03:22:09;;;;;;;6.30;3.72;;;;;;;8.02;88.41;102605.19;5072664;28;20047;-82
2022/09/21 03:24:46;;;;;;;6.35;3.78;;;;;;;7.95;89.21;102606.81;5072656;28;20036;-82
2022/09/21 03:27:14;;;;;;;7.43;3.88;;;;;;;7.90;88.74;102605.84;5055808;28;20037;-82
2022/09/21 03:29:39;;;;;;;7.10;3.78;;;;;;;7.82;88.73;102610.13;5053744;28;20031;-82
2022/09/21 03:32:05;;;;;;;6.63;3.63;;;;;;;7.81;88.63;102616.25;5054449;28;20045;-82
2022/09/21 03:34:33;;;;;;;7.07;4.00;;;;;;;7.77;89.15;102611.78;5069123;28;20392;-82
2022/09/21 03:37:00;;;;;;;7.45;3.70;;;;;;;7.72;88.89;102610.81;5036776;28;20032;-82
2022/09/21 03:39:26;;;;;;;7.28;4.20;;;;;;;7.69;88.99;102614.28;5072266;28;20549;-82
2022/09/21 03:41:54;;;;;;;11.02;4.35;;;;;;;7.66;89.94;102613.31;5072354;28;20044;-82
2022/09/21 03:44:20;;;;;;;10.82;4.78;;;;;;;7.63;89.18;102610.63;5072354;28;20437;-82
2022/09/21 03:46:46;;;;;;;10.40;4.53;;;;;;;7.56;89.53;102616.66;5072391;28;20131;-82
2022/09/21 03:49:11;;;;;;;5.95;3.78;;;;;;;7.50;89.18;102610.41;5072165;28;20154;-82
2022/09/21 03:51:38;;;;;;;9.70;4.10;;;;;;;7.49;89.11;102624.47;5060382;28;20068;-82
2022/09/21 03:54:04;;;;;;;8.38;3.70;;;;;;;7.45;89.61;102625.25;5070877;28;20123;-82
2022/09/21 03:56:29;;;;;;;7.63;3.80;;;;;;;7.40;89.55;102619.00;5073516;28;20542;-82
2022/09/21 03:58:55;;;;;;;7.32;3.60;;;;;;;7.37;89.40;102621.59;5038440;28;20024;-82
2022/09/21 04:01:20;;;;;;;6.38;4.13;;;;;;;7.32;89.21;102616.22;5069843;28;20064;-82
2022/09/21 04:03:46;;;;;;;5.72;3.83;;;;;;;7.30;89.28;102625.84;5047865;28;20040;-82
2022/09/21 04:06:12;;;;;;;9.57;4.35;;;;;;;7.29;89.31;102625.78;5068706;28;20032;-82
2022/09/21 04:08:39;;;;;;;7.95;3.95;;;;;;;7.26;88.79;102623.97;5051997;28;20055;-82
2022/09/21 04:11:12;;;;;;;5.28;3.80;;;;;;;7.22;89.55;102622.16;5066940;28;20037;-82
2022/09/21 04:13:37;;;;;;;8.65;4.13;;;;;;;7.17;89.37;102621.19;5059796;28;20177;-82
2022/09/21 04:16:03;;;;;;;7.50;4.03;;;;;;;7.14;89.83;102613.19;5055126;28;20131;-82
2022/09/21 04:18:29;;;;;;;7.15;3.72;;;;;;;7.08;89.57;102613.06;5067055;28;20029;-82
2022/09/21 04:20:54;;;;;;;10.07;3.67;;;;;;;7.06;89.62;102610.41;5063522;28;20157;-82
2022/09/21 04:23:21;;;;;;;6.82;4.00;;;;;;;7.01;89.53;102609.41;5038144;28;20367;-82
2022/09/21 04:25:50;;;;;;;11.75;3.85;;;;;;;7.01;89.61;102612.06;5071884;28;20036;-82
2022/09/21 04:28:16;;;;;;;6.10;3.35;;;;;;;6.96;90.20;102618.97;5070654;28;20640;-82
2022/09/21 04:30:42;;;;;;;6.68;3.85;;;;;;;6.94;90.03;102618.03;5056106;28;20024;-82
2022/09/21 04:33:07;;;;;;;6.40;3.60;;;;;;;6.91;90.06;102623.25;5065785;28;20039;-82
2022/09/21 04:35:33;;;;;;;6.07;3.50;;;;;;;6.86;90.26;102615.25;5063437;28;20480;-82
2022/09/21 04:37:58;;;;;;;6.47;4.20;;;;;;;6.83;90.79;102623.09;5072922;28;20063;-82
2022/09/21 04:40:24;;;;;;;8.70;3.55;;;;;;;6.80;90.79;102625.66;5070911;28;20120;-82
2022/09/21 04:42:53;;;;;;;6.15;3.67;;;;;;;6.77;90.36;102629.94;5071205;28;20194;-82
2022/09/21 04:45:20;;;;;;;7.03;3.65;;;;;;;6.75;89.69;102631.66;5070982;28;20062;-82
2022/09/21 04:47:45;;;;;;;4.20;3.30;;;;;;;6.73;89.19;102630.75;5070464;28;20028;-82
2022/09/21 04:50:11;;;;;;;4.55;3.20;;;;;;;6.70;89.90;102628.03;5070926;28;20037;-82
2022/09/21 04:52:36;;;;;;;5.22;3.42;;;;;;;6.63;89.34;102630.53;5072367;28;20070;-82
2022/09/21 04:55:02;;;;;;;5.20;3.47;;;;;;;6.60;90.09;102627.84;5072023;28;20036;-82
2022/09/21 04:57:28;;;;;;;6.95;3.65;;;;;;;6.57;90.16;102630.38;5072064;28;20086;-83
2022/09/21 04:59:54;;;;;;;6.15;3.70;;;;;;;6.56;90.66;102636.50;5056977;28;20052;-82
2022/09/21 05:02:20;;;;;;;6.13;3.90;;;;;;;6.50;90.31;102636.34;5054682;28;20044;-82
2022/09/21 05:04:45;;;;;;;12.20;4.15;;;;;;;6.50;90.63;102636.34;5069558;28;20044;-82
2022/09/21 05:07:11;;;;;;;5.55;3.70;;;;;;;6.49;90.70;102641.59;5070994;28;20063;-82
2022/09/21 05:12:20;;;;;;;10.05;4.72;;;;;;;6.43;90.93;102642.34;5071096;28;20130;-82
2022/09/21 05:14:46;;;;;;;5.97;4.03;;;;;;;6.44;90.74;102639.72;5070347;28;20453;-81
2022/09/21 05:17:11;;;;;;;5.90;4.20;;;;;;;6.40;90.79;102644.88;5054234;28;20055;-81
2022/09/21 05:19:37;;;;;;;6.10;4.05;;;;;;;6.38;91.54;102647.50;5056007;28;20079;-82
2022/09/21 05:22:02;;;;;;;6.13;4.00;;;;;;;6.35;91.86;102646.50;5070226;28;20038;-81
2022/09/21 05:24:28;;;;;;;7.68;4.53;;;;;;;6.35;91.46;102636.88;5070426;28;20072;-82
2022/09/21 05:26:53;;;;;;;6.97;3.97;;;;;;;6.32;91.19;102642.06;5063015;28;20132;-82
2022/09/21 05:29:19;;;;;;;8.15;4.30;;;;;;;6.32;92.36;102647.31;5049756;28;20507;-81
2022/09/21 05:31:50;;;;;;;7.53;4.53;;;;;;;6.32;91.90;102649.97;5051966;28;20543;-82
2022/09/21 05:34:28;;;;;;;10.05;4.55;;;;;;;6.34;91.56;102650.88;5052556;28;20480;-82
2022/09/21 05:37:32;;;;;;;7.32;4.25;;;;;;;6.35;92.47;102655.28;5065892;28;20079;-82
2022/09/21 05:39:58;;;;;;;9.60;4.72;;;;;;;6.33;91.41;102661.38;5052137;28;20489;-82
2022/09/21 05:42:24;;;;;;;6.53;4.40;;;;;;;6.31;91.89;102666.63;5061167;28;20029;-82
2022/09/21 05:44:49;;;;;;;9.68;4.75;;;;;;;6.28;92.07;102666.53;5050716;28;20342;-82
2022/09/21 05:47:34;;;;;;;8.75;4.63;;;;;;;6.29;92.28;102663.03;5053674;28;20033;-82
2022/09/21 05:50:26;;;;;;;6.80;4.05;;;;;;;6.31;92.44;102657.84;5057890;28;20028;-82
2022/09/21 05:53:27;;;;;;;7.70;4.97;;;;;;;6.29;92.28;102665.69;5033888;28;20268;-82
2022/09/21 05:56:05;;;;;;;7.38;4.22;;;;;;;6.29;92.24;102663.03;5054194;28;20091;-83
2022/09/21 05:58:49;;;;;;;11.52;4.75;;;;;;;6.29;92.81;102668.31;5058429;28;20036;-82
2022/09/21 06:01:15;;;;;;;6.60;4.10;;;;;;;6.32;92.71;102672.75;5063264;28;20033;-82
2022/09/21 06:03:41;;;;;;;7.25;4.20;;;;;;;6.32;92.88;102670.13;5056060;28;20025;-82
2022/09/21 06:06:08;;;;;;;6.45;3.63;;;;;;;6.35;92.48;102678.09;5054771;28;20037;-82
2022/09/21 06:08:34;;;;;;;9.13;4.72;;;;;;;6.39;92.06;102670.31;5065055;28;20483;-82
2022/09/21 06:11:00;;;;;;;13.88;4.55;;;;;;;6.44;92.61;102678.31;5047000;28;20044;-82
2022/09/21 06:13:26;;;;;;;9.30;4.32;;;;;;;6.43;92.99;102668.66;5061295;28;20352;-82
2022/09/21 06:15:52;;;;;;;7.78;4.25;;;;;;;6.46;93.20;102669.63;5065631;28;20322;-82
2022/09/21 06:18:18;;;;;;;7.78;4.53;;;;;;;6.52;93.59;102668.88;5057839;28;20486;-82
2022/09/21 06:20:44;;;;;;;8.93;4.53;;;;;;;6.60;93.91;102676.94;5042684;28;20108;-82
2022/09/21 06:23:12;;;;;;;14.10;5.05;;;;;;;6.63;93.90;102680.56;5053419;28;20481;-82
2022/09/21 06:25:37;;;;;;;8.25;4.63;;;;;;;6.70;93.00;102678.06;5065453;28;20025;-82
2022/09/21 06:28:04;;;;;;;10.20;4.80;;;;;;;6.79;94.11;102680.91;5053092;28;20387;-82
2022/09/21 06:30:32;;;;;;;7.82;4.88;;;;;;;6.86;94.15;102682.84;5031114;28;20032;-82
2022/09/21 06:32:59;;;;;;;12.88;5.70;;;;;;;6.96;94.23;102678.66;5054866;28;20480;-82
2022/09/21 06:35:24;;;;;;;12.57;5.18;;;;;;;7.05;95.17;102676.25;5058531;28;20032;-82
2022/09/21 06:37:50;;;;;;;7.32;4.32;;;;;;;7.12;94.26;102678.13;5036562;28;20035;-82
2022/09/21 06:40:15;;;;;;;9.20;4.45;;;;;;;7.17;92.79;102679.16;5048956;28;20064;-82
2022/09/21 06:42:41;;;;;;;7.55;4.15;;;;;;;7.27;92.40;102689.03;5054477;28;20044;-82
2022/09/21 06:45:07;;;;;;;21.27;5.40;;;;;;;7.38;94.19;102685.72;5052958;28;20103;-82
2022/09/21 06:47:32;;;;;;;18.23;6.70;;;;;;;7.45;95.17;102688.50;5036332;28;20542;-81
2022/09/21 06:49:58;;;;;;;12.15;5.82;;;;;;;7.53;95.42;102688.66;5052832;28;20040;-82
2022/09/21 06:52:23;;;;;;;10.63;5.15;;;;;;;7.59;95.12;102680.91;5052874;28;20025;-81
2022/09/21 06:54:49;;;;;;;10.50;6.72;;;;;;;7.65;95.03;102680.13;5052738;28;20124;-82
2022/09/21 06:57:14;;;;;;;11.10;5.50;;;;;;;7.73;95.74;102682.03;5036261;28;20033;-82
2022/09/21 06:59:40;;;;;;;17.50;6.53;;;;;;;7.83;95.57;102684.84;5053392;28;20388;-82
2022/09/21 07:02:05;;;;;;;13.68;6.13;;;;;;;7.94;96.14;102686.84;5053930;28;20060;-82
2022/09/21 07:04:31;;;;;;;11.48;6.53;;;;;;;8.06;96.44;102680.91;5035127;28;20044;-82
2022/09/21 07:06:56;;;;;;;12.75;6.50;;;;;;;8.18;96.81;102680.22;5058568;28;20036;-82
2022/09/21 07:09:22;;;;;;;16.65;6.75;;;;;;;8.31;96.62;102678.69;5071456;28;20040;-81
2022/09/21 07:11:48;;;;;;;16.20;7.45;;;;;;;8.46;97.12;102678.97;5073921;28;20068;-81
2022/09/21 07:14:14;;;;;;;22.85;8.85;;;;;;;8.63;96.59;102683.63;5052085;28;20037;-81
2022/09/21 07:16:40;;;;;;;17.02;8.10;;;;;;;8.77;96.48;102682.09;5050407;28;20337;-82
2022/09/21 07:19:05;;;;;;;21.08;8.27;;;;;;;8.94;96.82;102684.97;5065021;28;20037;-81
2022/09/21 07:21:31;;;;;;;14.35;8.18;;;;;;;9.09;96.29;102676.38;5052513;28;20045;-82
2022/09/21 07:24:00;;;;;;;12.50;6.68;;;;;;;9.24;95.57;102679.22;5051905;28;20033;-81
2022/09/21 07:26:26;;;;;;;16.38;6.28;;;;;;;9.40;94.78;102686.50;5072133;28;20032;-82
2022/09/21 07:28:52;;;;;;;15.90;6.90;;;;;;;9.55;94.75;102683.16;5065506;28;20345;-81
2022/09/21 07:31:17;;;;;;;18.48;5.40;;;;;;;9.70;94.25;102679.78;5068908;28;20036;-81
2022/09/21 07:33:45;;;;;;;11.57;5.47;;;;;;;9.84;93.33;102678.19;5073043;28;20051;-82
2022/09/21 07:36:12;;;;;;;10.57;5.47;;;;;;;10.01;92.24;102680.97;5060320;28;20033;-82
2022/09/21 07:38:39;;;;;;;14.23;6.00;;;;;;;10.17;91.99;102679.38;5071995;28;20522;-82
2022/09/21 07:41:10;;;;;;;9.02;4.65;;;;;;;10.35;91.81;102669.88;5072930;28;20092;-82
2022/09/21 07:43:38;;;;;;;11.98;5.15;;;;;;;10.47;91.53;102670.84;5072932;28;20036;-81
2022/09/21 07:46:03;;;;;;;15.07;5.78;;;;;;;10.62;90.43;102674.50;5071215;28;20047;-81
2022/09/21 07:48:29;;;;;;;9.43;4.30;;;;;;;10.74;89.30;102672.81;5062768;28;20020;-81
2022/09/21 07:51:06;;;;;;;8.45;3.70;;;;;;;10.90;88.93;102672.91;5071094;28;20036;-81
2022/09/21 07:53:36;;;;;;;8.40;3.60;;;;;;;11.01;86.80;102667.69;5070861;28;20090;-82
2022/09/21 07:56:07;;;;;;;9.97;3.87;;;;;;;11.13;86.27;102670.41;5053836;28;20044;-82
2022/09/21 08:01:18;;;;;;;9.20;3.25;;;;;;;11.37;85.44;102673.16;5053425;28;19924;-82
2022/09/21 08:03:43;;;;;;;10.40;3.80;;;;;;;11.49;85.11;102668.78;5060105;28;20028;-82
2022/09/21 08:06:08;;;;;;;10.30;3.85;;;;;;;11.60;84.31;102669.72;5071930;28;20055;-82
2022/09/21 08:08:34;;;;;;;11.88;4.35;;;;;;;11.72;84.15;102661.78;5057752;28;20044;-82
2022/09/21 08:11:04;;;;;;;7.40;3.72;;;;;;;11.86;83.63;102661.78;5051254;28;20048;-82
2022/09/21 08:13:30;;;;;;;13.13;4.43;;;;;;;11.96;82.08;102658.28;5069838;28;20040;-83
2022/09/21 08:15:58;;;;;;;13.85;4.07;;;;;;;12.06;82.55;102659.19;5072200;28;20048;-82
2022/09/21 08:18:24;;;;;;;9.32;3.30;;;;;;;12.18;81.71;102659.22;5070539;28;20020;-81
2022/09/21 08:20:54;;;;;;;10.90;3.70;;;;;;;12.29;81.25;102656.56;5070315;28;20110;-82
2022/09/21 08:23:20;;;;;;;7.93;3.53;;;;;;;12.42;81.03;102658.34;5065953;28;20053;-82
2022/09/21 08:25:45;;;;;;;11.65;3.72;;;;;;;12.55;79.96;102672.50;5070772;28;20028;-82
2022/09/21 08:28:11;;;;;;;10.00;3.42;;;;;;;12.63;79.14;102668.03;5067908;28;20418;-82
2022/09/21 08:30:36;;;;;;;7.30;3.13;;;;;;;12.73;78.05;102671.56;5070684;28;20040;-82
2022/09/21 08:33:02;;;;;;;7.72;3.45;;;;;;;12.85;78.34;102673.34;5072185;28;20032;-81
2022/09/21 08:35:28;;;;;;;8.02;2.88;;;;;;;12.94;76.64;102668.00;5061379;28;20494;-81
2022/09/21 08:37:53;;;;;;;13.35;3.30;;;;;;;13.08;77.00;102673.25;5070273;28;20048;-81
2022/09/21 08:40:19;;;;;;;6.93;2.80;;;;;;;13.18;76.41;102675.03;5071673;28;20045;-82
2022/09/21 08:42:51;;;;;;;6.65;3.20;;;;;;;13.30;77.16;102675.03;5053536;28;20031;-82
2022/09/21 08:45:20;;;;;;;9.43;2.97;;;;;;;13.36;74.96;102668.78;5056168;28;20056;-81
2022/09/21 08:47:58;;;;;;;8.55;2.97;;;;;;;13.46;75.41;102674.94;5063909;28;20115;-81
2022/09/21 08:50:38;;;;;;;7.45;2.40;;;;;;;13.53;75.40;102687.34;5066667;28;20036;-82
2022/09/21 08:53:13;;;;;;;6.55;2.85;;;;;;;13.64;73.88;102685.50;5069958;28;20128;-81
2022/09/21 08:55:39;;;;;;;6.40;2.70;;;;;;;13.67;72.51;102674.81;5068641;28;20028;-83
2022/09/21 08:58:20;;;;;;;8.77;3.10;;;;;;;13.76;73.97;102685.44;5058838;28;20028;-83
2022/09/21 09:00:46;;;;;;;6.13;2.90;;;;;;;13.85;71.59;102681.84;5068877;28;20039;-83
2022/09/21 09:03:47;;;;;;;10.52;3.05;;;;;;;13.96;73.81;102682.63;5057171;28;20033;-82
2022/09/21 09:06:32;;;;;;;14.43;3.78;;;;;;;14.07;72.70;102681.69;5042032;28;20448;-83
2022/09/21 09:09:09;;;;;;;13.02;3.55;;;;;;;14.17;71.60;102683.41;5069900;28;20036;-82
2022/09/21 09:11:47;;;;;;;10.55;3.55;;;;;;;14.24;71.77;102690.44;5070375;28;20040;-82
2022/09/21 09:14:33;;;;;;;10.35;3.15;;;;;;;14.31;72.00;102688.59;5071358;28;20093;-82
2022/09/21 09:17:36;;;;;;;7.60;3.70;;;;;;;14.39;72.02;102684.09;5046586;28;20043;-83
2022/09/21 09:20:30;;;;;;;8.65;2.88;;;;;;;14.50;71.50;102697.34;5067290;28;20033;-82
2022/09/21 09:23:12;;;;;;;9.60;2.50;;;;;;;14.61;69.69;102690.16;5071660;28;20131;-82
2022/09/21 09:25:40;;;;;;;11.55;2.63;;;;;;;14.67;67.47;102695.44;5058762;28;20107;-82
2022/09/21 09:28:30;;;;;;;9.93;2.25;;;;;;;14.79;69.05;102697.13;5068964;28;20464;-82
2022/09/21 09:31:02;;;;;;;6.40;2.05;;;;;;;14.95;67.68;102692.50;5039600;28;20044;-82
2022/09/21 09:33:54;;;;;;;12.35;2.28;;;;;;;15.07;68.31;102695.03;5066785;28;20032;-82
2022/09/21 09:36:22;;;;;;;8.32;2.45;;;;;;;15.03;66.35;102690.63;5062391;28;20110;-82
2022/09/21 09:39:02;;;;;;;7.68;2.33;;;;;;;14.98;65.53;102692.47;5053353;28;20040;-82
2022/09/21 09:42:09;;;;;;;7.95;2.50;;;;;;;15.04;67.20;102695.09;5071653;28;20510;-82
2022/09/21 09:44:53;;;;;;;8.10;2.65;;;;;;;15.27;67.69;102687.69;5069198;28;20483;-82
2022/09/21 09:47:57;;;;;;;4.68;2.33;;;;;;;15.49;66.48;102693.63;5063092;28;20028;-83
2022/09/21 09:50:28;;;;;;;9.23;2.22;;;;;;;15.46;62.24;102699.03;5048750;28;20036;-83
2022/09/21 09:52:58;;;;;;;;;;;;;;;15.32;66.50;102694.75;5071242;28;20399;-83
2022/09/21 09:55:29;;;;;;;13.38;2.33;;;;;;;14.95;64.56;102696.03;5056982;28;20000;-83
2022/09/21 09:57:55;;;;;;;5.23;1.93;;;;;;;14.76;63.24;102698.03;5069929;28;20045;-83
2022/09/21 10:00:21;;;;;;;7.43;2.00;;;;;;;14.61;64.13;102695.50;5071197;28;20032;-83
2022/09/21 10:02:53;;;;;;;5.72;1.50;;;;;;;14.49;61.50;102692.91;5070969;28;20032;-83
2022/09/21 10:05:37;;;;;;;;;;;;;;;14.52;67.17;102691.09;5053296;28;20081;-83
2022/09/21 10:08:03;;;;;;;7.13;1.83;;;;;;;14.41;65.18;102688.53;5056433;28;19912;-83
2022/09/21 10:10:31;;;;;;;8.10;1.77;;;;;;;14.38;66.29;102688.53;5069777;28;20501;-83
2022/09/21 10:13:18;;;;;;;8.50;1.48;;;;;;;14.39;66.02;102693.00;5053130;28;20336;-83
2022/09/21 10:15:57;;;;;;;8.23;2.28;;;;;;;14.38;65.64;102682.34;5070915;28;20056;-83
2022/09/21 10:18:28;;;;;;;5.97;1.52;;;;;;;14.41;63.17;102684.97;5069614;28;20032;-83
2022/09/21 10:20:54;;;;;;;;;;;;;;;14.54;67.16;102691.09;5070233;28;20476;-82
2022/09/21 10:23:19;;;;;;;5.00;1.60;;;;;;;14.55;61.75;102682.22;5067061;28;19913;-83
2022/09/21 10:25:53;;;;;;;6.00;1.60;;;;;;;14.58;64.47;102683.06;5058262;28;20056;-81
2022/09/21 10:28:21;;;;;;;4.20;1.58;;;;;;;14.63;63.53;102685.69;5065958;28;20044;-83
2022/09/21 10:30:47;;;;;;;7.93;1.90;;;;;;;14.68;64.13;102678.53;5068609;28;20123;-83
2022/09/21 10:33:20;;;;;;;7.40;2.08;;;;;;;14.71;64.50;102674.94;5055830;28;20033;-83
2022/09/21 10:35:51;;;;;;;7.47;2.10;;;;;;;14.75;64.21;102672.25;5049211;28;20131;-83
2022/09/21 10:38:18;;;;;;;;;;;;;;;14.86;66.75;102672.16;5069973;28;20484;-83
2022/09/21 10:40:45;;;;;;;6.45;1.73;;;;;;;14.92;65.22;102673.88;5070705;28;19952;-83
2022/09/21 10:43:24;;;;;;;9.07;1.63;;;;;;;15.02;64.66;102675.53;5069508;28;20024;-83
2022/09/21 10:45:56;;;;;;;5.05;1.33;;;;;;;15.09;62.41;102673.69;5059035;28;20040;-83
2022/09/21 10:48:24;;;;;;;5.70;1.30;;;;;;;15.12;58.86;102673.66;5049364;28;20527;-83
2022/09/21 10:50:52;;;;;;;5.22;1.23;;;;;;;15.19;59.62;102672.66;5056351;28;20035;-83
2022/09/21 10:53:23;;;;;;;8.45;1.45;;;;;;;15.20;58.67;102666.41;5056327;28;20097;-83
2022/09/21 10:56:15;;;;;;;5.68;1.60;;;;;;;15.21;61.05;102665.53;5056002;28;20032;-83
2022/09/21 10:59:21;;;;;;;4.80;1.50;;;;;;;15.34;62.98;102669.81;5059393;28;20102;-83
2022/09/21 11:01:49;;;;;;;9.15;1.85;;;;;;;15.41;59.25;102662.63;5064877;28;20048;-82
2022/09/21 11:04:47;;;;;;;9.27;1.63;;;;;;;15.52;61.56;102660.66;5060458;28;20403;-78
2022/09/21 11:07:20;;;;;;;4.95;1.38;;;;;;;15.54;59.51;102664.22;5036938;28;20040;-78
2022/09/21 11:10:22;;;;;;;9.75;1.90;;;;;;;16.04;64.83;102672.41;5072348;28;20155;-79
2022/09/21 11:13:13;;;;;;;4.47;1.50;;;;;;;16.34;60.09;102665.69;5051742;28;20131;-79
2022/09/21 11:16:03;;;;;;;4.63;1.38;;;;;;;16.37;56.56;102654.06;5061645;28;20448;-79
2022/09/21 11:18:47;;;;;;;5.00;1.17;;;;;;;16.82;58.04;102655.06;5065511;28;20170;-79
2022/09/21 11:21:26;;;;;;;4.55;1.40;;;;;;;17.38;58.15;102652.13;5073841;28;20110;-79
2022/09/21 11:24:02;;;;;;;14.40;1.55;;;;;;;17.89;58.00;102646.56;5073896;28;20424;-79
2022/09/21 11:26:55;;;;;;;4.05;1.90;;;;;;;17.94;57.50;102651.81;5072400;28;20032;-79
2022/09/21 11:29:31;;;;;;;6.38;1.70;;;;;;;18.04;52.58;102651.53;5061742;28;20025;-79
2022/09/21 11:32:39;;;;;;;5.05;1.55;;;;;;;18.25;53.36;102654.63;5053923;28;20102;-79
2022/09/21 11:35:23;;;;;;;5.95;2.10;;;;;;;18.55;53.05;102642.22;5059028;28;20072;-79
2022/09/21 11:37:56;;;;;;;6.38;1.20;;;;;;;18.79;51.26;102643.41;5058661;28;20454;-79
2022/09/21 11:40:40;;;;;;;10.85;1.40;;;;;;;19.00;50.44;102641.03;5061676;28;20028;-79
2022/09/21 11:43:34;;;;;;;6.07;1.98;;;;;;;18.95;49.45;102642.97;5059453;28;20495;-79
2022/09/21 11:46:00;;;;;;;7.35;1.40;;;;;;;18.73;47.10;102638.16;5055613;28;20055;-79
2022/09/21 11:48:28;;;;;;;7.65;1.65;;;;;;;18.48;48.00;102640.63;5068013;28;20024;-79
2022/09/21 11:51:25;;;;;;;3.63;1.50;;;;;;;18.30;50.64;102635.72;5065987;28;20038;-79
2022/09/21 11:54:14;;;;;;;5.72;1.60;;;;;;;18.38;47.61;102634.63;5043221;28;20377;-78
2022/09/21 11:57:27;;;;;;;5.40;1.58;;;;;;;18.84;53.52;102628.06;5060909;28;20116;-79